Time;durP1;ratioP1;P1;durP2;ratioP2;P2;SDS_P1;SDS_P2;PMS_P1;PMS_P2;Temp;Humidity;BMP_temperature;BMP_pressure;BME280_temperature;BME280_humidity;BME280_pressure;Samples;Min_cycle;Max_cycle;Signal;HPM_P1;HPM_P2
2022/11/26 00:01:13;;;;;;;;;;;;;;;7.40;57.14;100284.31;5098905;28;19908;-92
2022/11/26 00:03:39;;;;;;;;;;;;;;;7.37;56.83;100289.53;5108284;27;19918;-91
2022/11/26 00:06:13;;;;;;;;;;;;;;;7.22;57.82;100288.56;5120808;27;19963;-90
2022/11/26 00:08:38;;;;;;;;;;;;;;;7.17;57.30;100291.16;5129410;27;19908;-93
2022/11/26 00:11:05;;;;;;;;;;;;;;;7.32;57.22;100284.25;5113825;28;19921;-91
2022/11/26 00:13:30;;;;;;;;;;;;;;;7.19;56.94;100288.53;5117559;27;19984;-92
2022/11/26 00:15:56;;;;;;;;;;;;;;;7.40;56.88;100279.06;5115752;27;19919;-94
2022/11/26 00:18:27;;;;;;;;;;;;;;;7.12;57.45;100278.84;5115398;27;19922;-92
2022/11/26 00:20:54;;;;;;;;;;;;;;;7.17;57.23;100278.03;5115178;27;19986;-90
2022/11/26 00:23:24;;;;;;;;;;;;;;;7.04;57.41;100280.53;5111560;27;20403;-95
2022/11/26 00:25:51;;;;;;;;;;;;;;;7.02;57.29;100282.28;5095347;27;19916;-94
2022/11/26 00:28:23;;;;;;;;;;;;;;;7.06;57.01;100289.28;5133485;27;19911;-94
2022/11/26 00:30:49;;;;;;;;;;;;;;;6.95;57.38;100282.22;5133851;27;19911;-95
2022/11/26 00:33:15;;;;;;;;;;;;;;;6.97;57.40;100282.25;5115442;27;19919;-94
2022/11/26 00:35:41;;;;;;;;;;;;;;;7.14;57.01;100288.50;5113039;27;19930;-94
2022/11/26 00:38:12;;;;;;;;;;;;;;;7.03;57.02;100290.16;5115509;27;20376;-90
2022/11/26 00:40:39;;;;;;;;;;;;;;;7.10;56.88;100280.59;5106334;28;19937;-95
2022/11/26 00:43:05;;;;;;;;;;;;;;;7.20;56.63;100292.03;5095152;28;19919;-95
2022/11/26 00:45:30;;;;;;;;;;;;;;;7.23;55.85;100286.81;5095453;28;20446;-95
2022/11/26 00:48:00;;;;;;;;;;;;;;;7.22;56.61;100285.94;5078583;28;19962;-95
2022/11/26 00:50:26;;;;;;;;;;;;;;;7.12;55.80;100291.97;5113219;28;19916;-95
2022/11/26 00:52:55;;;;;;;;;;;;;;;7.19;56.04;100282.44;5094993;28;19934;-96
2022/11/26 00:55:23;;;;;;;;;;;;;;;7.21;55.69;100291.19;5094480;28;19967;-95
2022/11/26 00:57:49;;;;;;;;;;;;;;;7.17;55.88;100295.53;5105528;27;20388;-94
2022/11/26 01:00:16;;;;;;;;;;;;;;;7.14;55.59;100299.00;5128545;27;19972;-93
2022/11/26 01:02:41;;;;;;;;;;;;;;;7.11;55.80;100292.84;5093354;28;19919;-94
2022/11/26 01:05:07;;;;;;;;;;;;;;;7.15;55.37;100295.53;5100140;27;19915;-93
2022/11/26 01:07:32;;;;;;;;;;;;;;;7.46;54.29;100286.97;5132891;27;19908;-91
2022/11/26 01:09:58;;;;;;;;;;;;;;;7.01;55.44;100299.75;5129400;27;19916;-92
2022/11/26 01:12:23;;;;;;;;;;;;;;;7.14;54.75;100296.38;5112220;28;19954;-92
2022/11/26 01:14:48;;;;;;;;;;;;;;;7.04;55.00;100286.66;5096722;28;19966;-94
2022/11/26 01:17:13;;;;;;;;;;;;;;;7.03;55.22;100289.25;5093713;28;19918;-94
2022/11/26 01:19:39;;;;;;;;;;;;;;;7.26;54.49;100294.72;5112720;28;19922;-89
2022/11/26 01:22:07;;;;;;;;;;;;;;;7.41;53.88;100291.34;5132642;27;19911;-94
2022/11/26 01:24:33;;;;;;;;;;;;;;;7.61;53.73;100292.34;5113077;28;19916;-93
2022/11/26 01:26:58;;;;;;;;;;;;;;;7.74;53.27;100290.69;5109389;28;19964;-94
2022/11/26 01:29:23;;;;;;;;;;;;;;;7.43;53.85;100287.88;5077029;28;20182;-93
2022/11/26 01:31:49;;;;;;;;;;;;;;;7.41;54.58;100284.31;5108009;28;20442;-90
2022/11/26 01:34:14;;;;;;;;;;;;;;;7.60;53.78;100285.34;5112362;28;19926;-92
2022/11/26 01:36:40;;;;;;;;;;;;;;;7.47;54.60;100287.00;5115181;28;20399;-94
2022/11/26 01:39:12;;;;;;;;;;;;;;;7.48;54.21;100280.88;5115340;28;20035;-95
2022/11/26 01:41:53;;;;;;;;;;;;;;;7.29;54.72;100285.13;5113738;28;19918;-96
2022/11/26 01:44:20;;;;;;;;;;;;;;;7.39;54.79;100283.44;5114205;28;20010;-93
2022/11/26 01:46:46;;;;;;;;;;;;;;;7.63;54.94;100295.88;5111409;28;19958;-96
2022/11/26 01:49:16;;;;;;;;;;;;;;;7.40;54.78;100292.19;5112759;28;19915;-94
2022/11/26 01:51:42;;;;;;;;;;;;;;;7.46;55.15;100293.13;5094912;28;19965;-95
2022/11/26 01:54:08;;;;;;;;;;;;;;;7.34;55.28;100285.16;5113954;28;19958;-94
2022/11/26 01:56:37;;;;;;;;;;;;;;;7.41;55.16;100289.56;5113133;28;19911;-94
2022/11/26 01:59:09;;;;;;;;;;;;;;;7.42;54.63;100285.22;5094241;28;19928;-94
2022/11/26 02:01:35;;;;;;;;;;;;;;;7.39;55.27;100290.47;5113819;28;19915;-94
2022/11/26 02:04:14;;;;;;;;;;;;;;;7.22;56.01;100285.06;5134726;28;19919;-95
2022/11/26 02:06:41;;;;;;;;;;;;;;;7.06;56.15;100284.94;5114415;28;19918;-95
2022/11/26 02:09:07;;;;;;;;;;;;;;;7.08;56.35;100287.59;5095243;28;19911;-95
2022/11/26 02:11:33;;;;;;;;;;;;;;;6.95;56.90;100292.72;5124457;28;20103;-94
2022/11/26 02:14:03;;;;;;;;;;;;;;;6.80;57.28;100295.19;5114777;27;20304;-96
2022/11/26 02:16:34;;;;;;;;;;;;;;;6.94;56.67;100297.94;5118377;27;20358;-96
2022/11/26 02:19:16;;;;;;;;;;;;;;;6.98;56.97;100303.25;5118533;27;19911;-95
2022/11/26 02:21:43;;;;;;;;;;;;;;;7.04;57.14;100299.78;5135911;27;19911;-94
2022/11/26 02:24:14;;;;;;;;;;;;;;;7.07;56.73;100312.06;5116912;27;19964;-93
2022/11/26 02:26:51;;;;;;;;;;;;;;;6.84;56.80;100317.06;5125285;27;19916;-93
2022/11/26 02:29:35;;;;;;;;;;;;;;;6.73;57.51;100317.81;5097125;28;19929;-93
2022/11/26 02:32:21;;;;;;;;;;;;;;;6.82;57.59;100322.31;5096860;28;19915;-94
2022/11/26 02:34:56;;;;;;;;;;;;;;;6.80;57.54;100322.28;5117966;27;19915;-93
2022/11/26 02:37:28;;;;;;;;;;;;;;;6.80;56.93;100326.66;5098375;27;19912;-93
2022/11/26 02:39:55;;;;;;;;;;;;;;;6.81;56.47;100326.69;5135673;27;19976;-93
2022/11/26 02:42:24;;;;;;;;;;;;;;;6.62;56.99;100332.56;5120572;27;19915;-92
2022/11/26 02:44:50;;;;;;;;;;;;;;;6.73;56.95;100324.81;5114771;28;19912;-92
2022/11/26 02:47:17;;;;;;;;;;;;;;;6.49;56.65;100333.28;5115090;27;19919;-90
2022/11/26 02:49:43;;;;;;;;;;;;;;;6.15;54.23;100333.75;5135391;27;19911;-92
2022/11/26 02:52:10;;;;;;;;;;;;;;;5.49;56.00;100335.38;5117147;27;19958;-93
2022/11/26 02:54:36;;;;;;;;;;;;;;;5.08;58.58;100343.41;5135062;27;20372;-91
2022/11/26 02:57:04;;;;;;;;;;;;;;;5.17;58.83;100344.47;5124530;27;19915;-91
2022/11/26 02:59:30;;;;;;;;;;;;;;;5.11;59.32;100344.38;5114288;28;19912;-90
2022/11/26 03:01:58;;;;;;;;;;;;;;;5.29;59.40;100345.53;5096426;28;19918;-91
2022/11/26 03:04:29;;;;;;;;;;;;;;;5.47;58.84;100342.31;5130941;27;20071;-92
2022/11/26 03:06:56;;;;;;;;;;;;;;;5.55;58.35;100343.34;5126050;27;19926;-92
2022/11/26 03:09:22;;;;;;;;;;;;;;;5.27;58.74;100349.88;5126267;27;19964;-90
2022/11/26 03:11:47;;;;;;;;;;;;;;;5.29;58.46;100350.75;5138654;27;19909;-90
2022/11/26 03:14:13;;;;;;;;;;;;;;;5.20;58.36;100352.38;5137551;27;19915;-91
2022/11/26 03:16:38;;;;;;;;;;;;;;;4.95;58.48;100360.63;5141672;27;19919;-92
2022/11/26 03:19:03;;;;;;;;;;;;;;;4.77;59.07;100358.53;5134416;27;20052;-92
2022/11/26 03:21:30;;;;;;;;;;;;;;;4.82;58.76;100363.00;5135352;27;20048;-93
2022/11/26 03:23:55;;;;;;;;;;;;;;;4.76;59.43;100356.78;5134669;27;19911;-93
2022/11/26 03:26:21;;;;;;;;;;;;;;;4.77;59.59;100355.91;5124587;27;19915;-93
2022/11/26 03:28:46;;;;;;;;;;;;;;;4.64;59.97;100362.66;5114232;28;20928;-93
2022/11/26 03:31:11;;;;;;;;;;;;;;;4.63;60.45;100367.00;5095962;28;19961;-92
2022/11/26 03:33:37;;;;;;;;;;;;;;;4.67;60.54;100367.94;5114198;28;19919;-93
2022/11/26 03:36:03;;;;;;;;;;;;;;;4.60;59.95;100377.41;5107145;27;20362;-91
2022/11/26 03:38:28;;;;;;;;;;;;;;;4.55;59.81;100381.63;5134190;27;19912;-90
2022/11/26 03:40:57;;;;;;;;;;;;;;;4.40;60.20;100381.31;5134018;27;19911;-90
2022/11/26 03:43:22;;;;;;;;;;;;;;;4.41;59.96;100376.13;5115415;27;19950;-91
2022/11/26 03:45:47;;;;;;;;;;;;;;;4.42;60.45;100388.34;5125788;27;19966;-92
2022/11/26 03:48:13;;;;;;;;;;;;;;;4.27;60.01;100398.47;5113820;28;19961;-90
2022/11/26 03:50:38;;;;;;;;;;;;;;;4.34;60.28;100408.22;5113540;28;19939;-91
2022/11/26 03:53:03;;;;;;;;;;;;;;;4.30;60.41;100419.44;5113662;28;20002;-91
2022/11/26 03:55:29;;;;;;;;;;;;;;;4.21;61.04;100422.69;5112917;28;20433;-91
2022/11/26 03:57:54;;;;;;;;;;;;;;;4.25;60.77;100431.50;5113261;28;20404;-91
2022/11/26 04:00:20;;;;;;;;;;;;;;;4.12;61.20;100431.22;5123599;27;19998;-90
2022/11/26 04:02:45;;;;;;;;;;;;;;;4.23;61.68;100433.19;5133714;27;19922;-90
2022/11/26 04:05:10;;;;;;;;;;;;;;;4.32;61.76;100435.13;5131898;27;20373;-91
2022/11/26 04:07:35;;;;;;;;;;;;;;;4.42;61.55;100435.38;5113576;28;19973;-90
2022/11/26 04:10:01;;;;;;;;;;;;;;;4.48;62.10;100438.13;5113440;28;19916;-91
2022/11/26 04:12:26;;;;;;;;;;;;;;;4.16;61.66;100444.34;5112549;28;20430;-90
2022/11/26 04:14:51;;;;;;;;;;;;;;;4.03;62.46;100448.41;5113166;28;19916;-90
2022/11/26 04:17:17;;;;;;;;;;;;;;;4.09;63.14;100449.44;5112853;27;19916;-92
2022/11/26 04:19:42;;;;;;;;;;;;;;;4.25;62.61;100455.03;5112796;28;20438;-91
2022/11/26 04:22:07;;;;;;;;;;;;;;;4.32;62.08;100450.81;5112912;28;19912;-90
2022/11/26 04:24:33;;;;;;;;;;;;;;;4.40;61.63;100450.13;5112932;28;19915;-90
2022/11/26 04:26:58;;;;;;;;;;;;;;;4.17;62.10;100452.22;5127229;27;20407;-89
2022/11/26 04:29:23;;;;;;;;;;;;;;;3.92;61.89;100446.44;5115152;27;19916;-90
2022/11/26 04:31:48;;;;;;;;;;;;;;;3.69;62.01;100451.09;5112602;28;19915;-91
2022/11/26 04:34:14;;;;;;;;;;;;;;;3.78;61.98;100466.06;5128282;27;19995;-90
2022/11/26 04:36:39;;;;;;;;;;;;;;;4.03;61.35;100466.66;5113750;27;20006;-91
2022/11/26 04:39:04;;;;;;;;;;;;;;;3.91;61.16;100467.28;5133529;27;19919;-93
2022/11/26 04:41:30;;;;;;;;;;;;;;;3.86;61.00;100471.47;5133080;27;19922;-91
2022/11/26 04:43:55;;;;;;;;;;;;;;;3.54;62.13;100479.41;5132744;27;19922;-91
2022/11/26 04:46:20;;;;;;;;;;;;;;;3.52;62.42;100476.75;5133305;27;19912;-93
2022/11/26 04:48:46;;;;;;;;;;;;;;;3.46;62.65;100480.91;5133193;27;19911;-92
2022/11/26 04:51:11;;;;;;;;;;;;;;;3.27;63.28;100483.03;5114622;27;19912;-92
2022/11/26 04:53:36;;;;;;;;;;;;;;;3.38;63.46;100486.81;5114587;27;20002;-93
2022/11/26 04:56:02;;;;;;;;;;;;;;;3.32;63.61;100486.66;5132893;27;19911;-91
2022/11/26 04:58:27;;;;;;;;;;;;;;;3.47;63.67;100490.50;5118553;27;20372;-92
2022/11/26 05:00:52;;;;;;;;;;;;;;;3.43;63.80;100494.78;5117162;27;19907;-93
2022/11/26 05:03:18;;;;;;;;;;;;;;;3.53;63.38;100494.16;5095117;28;19988;-93
2022/11/26 05:05:43;;;;;;;;;;;;;;;3.66;63.53;100494.47;5112259;28;20309;-94
2022/11/26 05:08:09;;;;;;;;;;;;;;;3.56;64.04;100503.78;5112788;28;19958;-94
2022/11/26 05:10:34;;;;;;;;;;;;;;;3.69;63.03;100513.72;5093740;28;20002;-93
2022/11/26 05:12:59;;;;;;;;;;;;;;;3.69;63.05;100508.50;5094765;28;19954;-92
2022/11/26 05:15:25;;;;;;;;;;;;;;;3.58;62.92;100508.22;5094365;28;19911;-92
2022/11/26 05:17:50;;;;;;;;;;;;;;;3.53;63.26;100520.25;5112706;28;19968;-92
2022/11/26 05:20:16;;;;;;;;;;;;;;;3.58;63.39;100521.25;5122062;27;19967;-92
2022/11/26 05:22:41;;;;;;;;;;;;;;;3.45;62.80;100531.31;5099798;28;19922;-93
2022/11/26 05:25:07;;;;;;;;;;;;;;;3.47;62.93;100527.91;5094054;28;19929;-91
2022/11/26 05:27:32;;;;;;;;;;;;;;;3.30;63.91;100526.56;5112004;28;20436;-90
2022/11/26 05:29:58;;;;;;;;;;;;;;;3.04;64.28;100525.00;5120164;28;19918;-91
2022/11/26 05:32:26;;;;;;;;;;;;;;;3.15;64.45;100527.91;5124809;28;20384;-92
2022/11/26 05:34:51;;;;;;;;;;;;;;;3.18;64.73;100528.00;5131578;28;19915;-92
2022/11/26 05:37:17;;;;;;;;;;;;;;;2.98;65.14;100530.03;5132711;28;19919;-93
2022/11/26 05:39:42;;;;;;;;;;;;;;;3.10;64.76;100531.22;5114204;28;20312;-92
2022/11/26 05:42:07;;;;;;;;;;;;;;;3.27;65.00;100527.34;5108414;28;19926;-93
2022/11/26 05:44:33;;;;;;;;;;;;;;;3.21;65.56;100527.19;5093492;28;19912;-91
2022/11/26 05:46:58;;;;;;;;;;;;;;;3.47;64.82;100529.63;5093542;28;19955;-92
2022/11/26 05:49:23;;;;;;;;;;;;;;;3.48;65.70;100526.19;5115779;28;20346;-92
2022/11/26 05:51:49;;;;;;;;;;;;;;;3.61;65.40;100533.47;5098190;27;20345;-92
2022/11/26 05:54:14;;;;;;;;;;;;;;;3.51;65.06;100541.94;5116510;28;19918;-93
2022/11/26 05:56:40;;;;;;;;;;;;;;;3.67;64.71;100551.91;5101030;27;20377;-93
2022/11/26 05:59:06;;;;;;;;;;;;;;;3.83;64.56;100555.84;5117596;27;19922;-94
2022/11/26 06:01:32;;;;;;;;;;;;;;;3.88;64.59;100553.34;5114719;28;19916;-93
2022/11/26 06:03:58;;;;;;;;;;;;;;;4.01;64.30;100554.53;5100328;27;19992;-93
2022/11/26 06:06:23;;;;;;;;;;;;;;;4.15;63.75;100557.50;5131246;27;19935;-95
2022/11/26 06:08:48;;;;;;;;;;;;;;;4.21;63.59;100555.03;5108646;27;19926;-93
2022/11/26 06:11:14;;;;;;;;;;;;;;;4.23;63.28;100559.47;5137652;27;19998;-94
2022/11/26 06:13:39;;;;;;;;;;;;;;;4.33;63.33;100565.78;5138685;27;19911;-92
2022/11/26 06:16:05;;;;;;;;;;;;;;;4.46;63.14;100565.25;5139269;27;19940;-90
2022/11/26 06:18:30;;;;;;;;;;;;;;;4.60;62.52;100562.03;5136400;27;19911;-90
2022/11/26 06:20:58;;;;;;;;;;;;;;;4.66;62.27;100565.69;5136090;27;19914;-89
2022/11/26 06:23:24;;;;;;;;;;;;;;;4.72;62.18;100578.00;5129547;27;19916;-89
2022/11/26 06:25:49;;;;;;;;;;;;;;;4.82;61.80;100573.88;5129573;27;19938;-87
2022/11/26 06:28:14;;;;;;;;;;;;;;;4.80;61.76;100565.09;5135395;27;19915;-92
2022/11/26 06:30:39;;;;;;;;;;;;;;;5.02;61.19;100572.59;5135998;27;19968;-92
2022/11/26 06:33:05;;;;;;;;;;;;;;;5.19;62.14;100578.19;5136042;27;19912;-93
2022/11/26 06:35:30;;;;;;;;;;;;;;;5.35;62.30;100586.34;5135273;27;19930;-90
2022/11/26 06:37:56;;;;;;;;;;;;;;;5.42;60.76;100580.34;5111802;28;19989;-89
2022/11/26 06:40:21;;;;;;;;;;;;;;;5.64;60.04;100583.41;5114750;28;19912;-90
2022/11/26 06:42:50;;;;;;;;;;;;;;;5.73;59.49;100586.19;5113956;28;19962;-91
2022/11/26 06:45:15;;;;;;;;;;;;;;;5.76;59.50;100586.25;5108672;27;19921;-92
2022/11/26 06:47:40;;;;;;;;;;;;;;;6.16;59.22;100579.16;5119355;27;19911;-91
2022/11/26 06:50:06;;;;;;;;;;;;;;;6.36;58.10;100587.34;5116637;27;19918;-94
2022/11/26 06:52:31;;;;;;;;;;;;;;;6.63;56.81;100575.53;5115625;27;19942;-91
2022/11/26 06:54:57;;;;;;;;;;;;;;;6.67;56.45;100584.31;5135250;27;20418;-90
2022/11/26 06:57:22;;;;;;;;;;;;;;;6.85;56.76;100581.97;5120017;27;19919;-91
2022/11/26 06:59:47;;;;;;;;;;;;;;;7.05;55.79;100581.38;5120649;27;19964;-91
2022/11/26 07:02:14;;;;;;;;;;;;;;;7.46;55.30;100586.25;5122943;27;19988;-91
2022/11/26 07:04:39;;;;;;;;;;;;;;;7.42;54.66;100585.34;5118406;27;19926;-89
2022/11/26 07:07:05;;;;;;;;;;;;;;;7.61;53.49;100585.56;5119007;27;19912;-91
2022/11/26 07:09:30;;;;;;;;;;;;;;;7.77;53.29;100591.84;5099803;27;19911;-91
2022/11/26 07:11:55;;;;;;;;;;;;;;;7.71;52.54;100590.94;5123757;27;20019;-91
2022/11/26 07:14:23;;;;;;;;;;;;;;;7.90;51.97;100596.38;5121804;27;19923;-88
2022/11/26 07:16:49;;;;;;;;;;;;;;;7.70;52.66;100593.53;5123800;27;19915;-88
2022/11/26 07:19:14;;;;;;;;;;;;;;;8.02;52.89;100595.66;5117372;27;19942;-89
2022/11/26 07:21:39;;;;;;;;;;;;;;;8.31;52.67;100585.41;5105866;28;20492;-93
2022/11/26 07:24:05;;;;;;;;;;;;;;;8.53;50.81;100590.88;5127363;27;19978;-89
2022/11/26 07:26:30;;;;;;;;;;;;;;;8.35;51.45;100587.16;5123799;27;19958;-92
2022/11/26 07:28:56;;;;;;;;;;;;;;;8.51;49.33;100592.56;5118643;27;19924;-91
2022/11/26 07:31:21;;;;;;;;;;;;;;;8.49;49.60;100596.94;5121906;27;20060;-92
2022/11/26 07:33:47;;;;;;;;;;;;;;;8.73;48.88;100591.88;5122911;27;19961;-91
2022/11/26 07:36:17;;;;;;;;;;;;;;;8.41;49.19;100591.59;5134758;27;19919;-93
2022/11/26 07:38:43;;;;;;;;;;;;;;;8.39;49.07;100585.47;5116133;27;19922;-91
2022/11/26 07:41:10;;;;;;;;;;;;;;;8.57;49.43;100587.38;5137380;28;19959;-88
2022/11/26 07:43:36;;;;;;;;;;;;;;;8.94;49.30;100582.34;5121219;27;19921;-89
2022/11/26 07:46:04;;;;;;;;;;;;;;;8.92;48.85;100584.97;5142678;27;19975;-89
2022/11/26 07:48:32;;;;;;;;;;;;;;;8.90;48.82;100585.84;5139934;28;19918;-92
2022/11/26 07:50:58;;;;;;;;;;;;;;;8.94;48.57;100582.34;5125551;28;19912;-92
2022/11/26 07:53:27;;;;;;;;;;;;;;;9.03;48.43;100574.50;5134765;27;19920;-92
2022/11/26 07:55:52;;;;;;;;;;;;;;;8.76;48.94;100580.50;5127024;27;19922;-86
2022/11/26 07:58:18;;;;;;;;;;;;;;;8.66;49.40;100576.91;5118174;27;19911;-90
2022/11/26 08:00:43;;;;;;;;;;;;;;;8.50;48.93;100577.69;5135127;27;19907;-88
2022/11/26 08:03:08;;;;;;;;;;;;;;;8.50;49.79;100575.94;5115672;27;19915;-88
2022/11/26 08:05:34;;;;;;;;;;;;;;;8.61;49.53;100576.00;5116915;27;19919;-95
2022/11/26 08:07:59;;;;;;;;;;;;;;;8.28;50.49;100572.22;5115784;27;20287;-87
2022/11/26 08:10:26;;;;;;;;;;;;;;;8.45;51.65;100569.75;5135707;27;19911;-85
2022/11/26 08:12:51;;;;;;;;;;;;;;;8.77;50.55;100572.63;5130715;27;19911;-84
2022/11/26 08:15:16;;;;;;;;;;;;;;;8.68;50.27;100569.94;5131158;27;19915;-83
2022/11/26 08:17:42;;;;;;;;;;;;;;;8.47;50.54;100578.53;5129645;27;19915;-85
2022/11/26 08:20:08;;;;;;;;;;;;;;;8.47;51.14;100575.03;5128852;27;19925;-85
2022/11/26 08:22:33;;;;;;;;;;;;;;;8.82;50.75;100577.00;5115949;27;19915;-85
2022/11/26 08:24:58;;;;;;;;;;;;;;;9.00;50.53;100573.63;5134009;27;19965;-85
2022/11/26 08:27:24;;;;;;;;;;;;;;;9.16;50.46;100570.19;5122265;27;20006;-84
2022/11/26 08:29:49;;;;;;;;;;;;;;;8.85;50.56;100580.56;5121172;27;20020;-84
2022/11/26 08:32:14;;;;;;;;;;;;;;;9.21;51.02;100579.00;5124661;27;19927;-86
2022/11/26 08:34:40;;;;;;;;;;;;;;;9.55;51.43;100573.84;5114034;28;19911;-85
2022/11/26 08:37:05;;;;;;;;;;;;;;;9.41;50.61;100571.19;5127281;27;19941;-89
2022/11/26 08:39:30;;;;;;;;;;;;;;;9.35;51.18;100572.91;5123738;27;19970;-87
2022/11/26 08:41:56;;;;;;;;;;;;;;;9.83;50.20;100566.91;5122322;27;19924;-86
2022/11/26 08:44:21;;;;;;;;;;;;;;;9.89;51.16;100576.56;5127684;27;19954;-85
2022/11/26 08:46:46;;;;;;;;;;;;;;;9.84;50.68;100573.06;5123749;27;19916;-85
2022/11/26 08:49:13;;;;;;;;;;;;;;;9.71;49.97;100571.28;5101150;27;20002;-84
2022/11/26 08:51:39;;;;;;;;;;;;;;;9.69;51.63;100573.91;5132569;27;19911;-84
2022/11/26 08:54:04;;;;;;;;;;;;;;;10.00;50.09;100566.91;5133393;27;20701;-84
2022/11/26 08:56:29;;;;;;;;;;;;;;;10.19;50.27;100572.22;5133334;27;19918;-86
2022/11/26 08:58:55;;;;;;;;;;;;;;;10.02;48.54;100575.72;5131741;27;19922;-87
2022/11/26 09:01:23;;;;;;;;;;;;;;;10.17;48.15;100577.47;5123095;27;19923;-85
2022/11/26 09:03:51;;;;;;;;;;;;;;;10.47;47.55;100574.88;5125088;27;19923;-88
2022/11/26 09:06:17;;;;;;;;;;;;;;;10.25;46.92;100577.50;5131392;27;19911;-84
2022/11/26 09:11:27;;;;;;;;;;;;;;;10.53;46.20;100574.88;5131191;27;19967;-86
2022/11/26 09:13:53;;;;;;;;;;;;;;;10.95;45.86;100578.31;5131108;27;20576;-86
2022/11/26 09:16:18;;;;;;;;;;;;;;;10.98;44.94;100582.72;5130696;27;19918;-88
2022/11/26 09:18:44;;;;;;;;;;;;;;;11.13;43.42;100576.53;5130908;27;19923;-87
2022/11/26 09:21:10;;;;;;;;;;;;;;;11.04;44.88;100570.38;5130413;27;19918;-88
2022/11/26 09:23:35;;;;;;;;;;;;;;;11.14;43.61;100570.34;5130584;27;19911;-86
2022/11/26 09:26:00;;;;;;;;;;;;;;;11.13;43.02;100572.13;5130908;27;20689;-85
2022/11/26 09:28:26;;;;;;;;;;;;;;;11.08;42.41;100572.13;5131107;27;19917;-85
2022/11/26 09:30:56;;;;;;;;;;;;;;;10.98;42.75;100567.75;5113354;28;20002;-87
2022/11/26 09:33:21;;;;;;;;;;;;;;;11.22;43.52;100564.16;5131151;28;19918;-87
2022/11/26 09:35:46;;;;;;;;;;;;;;;11.57;42.69;100554.31;5130947;28;19915;-87
2022/11/26 09:38:12;;;;;;;;;;;;;;;11.71;42.67;100555.13;5113130;28;19918;-85
2022/11/26 09:40:42;;;;;;;;;;;;;;;11.62;40.63;100548.13;5120571;27;19915;-86
2022/11/26 09:43:20;;;;;;;;;;;;;;;11.26;40.84;100541.25;5118006;28;19912;-86
2022/11/26 09:45:48;;;;;;;;;;;;;;;11.45;41.54;100536.78;5113901;28;19911;-87
2022/11/26 09:48:16;;;;;;;;;;;;;;;11.43;40.88;100536.78;5131342;28;20387;-85
2022/11/26 09:50:42;;;;;;;;;;;;;;;11.35;40.79;100538.56;5131518;28;20473;-85
2022/11/26 09:53:17;;;;;;;;;;;;;;;11.47;41.50;100532.34;5131314;28;19918;-85
2022/11/26 09:55:45;;;;;;;;;;;;;;;11.44;41.12;100532.38;5131529;28;19960;-85
2022/11/26 09:58:14;;;;;;;;;;;;;;;11.56;41.32;100520.88;5114247;28;19911;-86
2022/11/26 10:00:44;;;;;;;;;;;;;;;11.85;42.63;100520.69;5110669;28;20454;-87
2022/11/26 10:03:15;;;;;;;;;;;;;;;11.95;41.28;100519.72;5111047;28;19912;-85
2022/11/26 10:05:49;;;;;;;;;;;;;;;11.91;39.48;100512.69;5110745;28;20053;-84
2022/11/26 10:08:15;;;;;;;;;;;;;;;11.83;40.12;100515.41;5110675;28;19989;-86
2022/11/26 10:10:40;;;;;;;;;;;;;;;12.25;39.50;100514.22;5110697;28;20384;-85
2022/11/26 10:13:22;;;;;;;;;;;;;;;12.27;39.49;100512.44;5112831;27;20010;-84
2022/11/26 10:15:47;;;;;;;;;;;;;;;12.29;40.15;100502.72;5123222;28;19912;-84
2022/11/26 10:18:19;;;;;;;;;;;;;;;12.23;39.96;100494.84;5119676;28;19959;-83
2022/11/26 10:20:50;;;;;;;;;;;;;;;12.35;38.77;100497.38;5125158;28;20409;-83
2022/11/26 10:23:28;;;;;;;;;;;;;;;12.42;39.25;100500.81;5095824;28;19912;-84
2022/11/26 10:26:06;;;;;;;;;;;;;;;12.12;39.31;100498.44;5110695;28;19923;-84
2022/11/26 10:28:57;;;;;;;;;;;;;;;12.25;39.08;100501.88;5110651;28;19920;-85
2022/11/26 10:31:25;;;;;;;;;;;;;;;11.99;39.59;100492.38;5086856;27;19998;-86
2022/11/26 10:34:00;;;;;;;;;;;;;;;12.29;39.46;100494.78;5110322;28;19923;-86
2022/11/26 10:36:31;;;;;;;;;;;;;;;12.31;38.80;100490.34;5109272;28;19912;-85
2022/11/26 10:38:57;;;;;;;;;;;;;;;12.41;39.00;100488.50;5114319;28;19911;-85
2022/11/26 10:41:24;;;;;;;;;;;;;;;12.47;38.58;100489.31;5114160;28;20048;-84
2022/11/26 10:43:49;;;;;;;;;;;;;;;12.42;39.53;100484.94;5115144;28;19919;-84
2022/11/26 10:46:34;;;;;;;;;;;;;;;12.52;38.08;100484.84;5114808;28;19912;-85
2022/11/26 10:49:23;;;;;;;;;;;;;;;12.62;38.02;100483.00;5122141;27;19915;-85
2022/11/26 10:51:51;;;;;;;;;;;;;;;12.64;36.88;100469.75;5118173;27;19964;-84
2022/11/26 10:54:22;;;;;;;;;;;;;;;12.53;37.40;100477.81;5115309;27;19919;-84
2022/11/26 10:56:52;;;;;;;;;;;;;;;12.64;37.71;100467.97;5114756;27;20373;-86
2022/11/26 10:59:21;;;;;;;;;;;;;;;12.57;36.18;100465.41;5127408;27;19911;-86
2022/11/26 11:01:47;;;;;;;;;;;;;;;12.54;37.65;100472.50;5113314;27;20308;-86
2022/11/26 11:04:26;;;;;;;;;;;;;;;12.87;36.26;100467.69;5130831;27;19911;-86
2022/11/26 11:06:51;;;;;;;;;;;;;;;12.86;37.03;100470.38;5125864;27;19919;-87
2022/11/26 11:09:28;;;;;;;;;;;;;;;12.92;37.92;100469.41;5118892;27;20001;-84
2022/11/26 11:12:16;;;;;;;;;;;;;;;13.03;36.55;100476.31;5125383;27;19919;-84
2022/11/26 11:14:43;;;;;;;;;;;;;;;12.98;36.32;100467.56;5105720;27;19911;-86
2022/11/26 11:17:24;;;;;;;;;;;;;;;13.07;36.49;100463.94;5126149;27;19973;-85
2022/11/26 11:19:50;;;;;;;;;;;;;;;13.01;36.90;100462.22;5126853;27;19912;-84
2022/11/26 11:22:22;;;;;;;;;;;;;;;12.88;36.15;100460.63;5124713;27;19983;-84
2022/11/26 11:24:47;;;;;;;;;;;;;;;13.01;36.53;100464.88;5130369;27;20031;-84
2022/11/26 11:27:31;;;;;;;;;;;;;;;12.95;36.16;100457.00;5113205;28;19966;-85
2022/11/26 11:30:00;;;;;;;;;;;;;;;13.02;36.48;100450.75;5130021;27;19918;-85
2022/11/26 11:32:32;;;;;;;;;;;;;;;13.08;36.42;100453.31;5101358;28;20350;-86
2022/11/26 11:35:10;;;;;;;;;;;;;;;13.37;36.33;100456.47;5119449;27;20001;-86
2022/11/26 11:37:45;;;;;;;;;;;;;;;13.16;36.57;100454.97;5133855;27;20388;-86
2022/11/26 11:40:16;;;;;;;;;;;;;;;13.01;35.90;100450.78;5118324;27;19958;-85
2022/11/26 11:42:44;;;;;;;;;;;;;;;13.07;37.01;100448.03;5111264;28;19951;-85
2022/11/26 11:45:22;;;;;;;;;;;;;;;13.15;36.29;100448.81;5126008;27;19922;-89
2022/11/26 11:47:49;;;;;;;;;;;;;;;13.24;36.05;100442.50;5109341;27;19915;-87
2022/11/26 11:50:14;;;;;;;;;;;;;;;13.22;36.14;100450.47;5115484;27;19955;-87
2022/11/26 11:52:46;;;;;;;;;;;;;;;13.10;36.08;100442.69;5126255;27;19954;-87
2022/11/26 11:55:20;;;;;;;;;;;;;;;13.21;36.22;100442.56;5133773;27;19918;-87
2022/11/26 11:58:06;;;;;;;;;;;;;;;13.11;36.48;100440.91;5132736;27;19915;-88
2022/11/26 12:00:42;;;;;;;;;;;;;;;12.88;36.51;100442.09;5091160;28;19918;-88
2022/11/26 12:03:07;;;;;;;;;;;;;;;12.96;35.60;100440.22;5112539;28;19912;-88
2022/11/26 12:05:47;;;;;;;;;;;;;;;13.05;35.75;100439.22;5094264;28;20381;-88
2022/11/26 12:08:12;;;;;;;;;;;;;;;13.02;35.49;100440.16;5128512;27;20388;-88
2022/11/26 12:10:58;;;;;;;;;;;;;;;13.21;35.61;100435.47;5133543;27;19918;-89
2022/11/26 12:13:24;;;;;;;;;;;;;;;13.38;34.99;100437.91;5133123;27;19934;-87
2022/11/26 12:16:01;;;;;;;;;;;;;;;13.48;34.23;100440.44;5114455;27;20441;-86
2022/11/26 12:18:45;;;;;;;;;;;;;;;13.49;34.80;100442.19;5134488;27;19972;-88
2022/11/26 12:21:12;;;;;;;;;;;;;;;13.65;34.94;100440.16;5138186;27;19915;-87
2022/11/26 12:23:44;;;;;;;;;;;;;;;13.78;34.77;100442.59;5156671;27;19912;-88
2022/11/26 12:26:16;;;;;;;;;;;;;;;13.52;34.01;100443.00;5149501;27;20357;-87
2022/11/26 12:28:49;;;;;;;;;;;;;;;13.60;35.25;100440.25;5160183;27;19911;-88
2022/11/26 12:31:18;;;;;;;;;;;;;;;13.52;34.25;100435.06;5160264;27;19983;-87
2022/11/26 12:34:13;;;;;;;;;;;;;;;13.52;35.32;100435.06;5143336;27;19915;-88
2022/11/26 12:36:44;;;;;;;;;;;;;;;13.76;35.33;100436.44;5079871;27;19912;-89
2022/11/26 12:39:17;;;;;;;;;;;;;;;13.75;35.83;100434.69;5115119;27;19948;-88
2022/11/26 12:41:58;;;;;;;;;;;;;;;13.51;36.28;100443.91;5133621;27;19914;-89
2022/11/26 12:44:29;;;;;;;;;;;;;;;13.53;37.21;100443.88;5114774;27;20361;-90
2022/11/26 12:47:03;;;;;;;;;;;;;;;13.51;36.31;100438.59;5114492;27;19920;-88
2022/11/26 12:49:47;;;;;;;;;;;;;;;13.76;35.95;100452.38;5132845;27;19911;-89